createdAt,value
2023-03-29T00:02:41.281Z,6.34
2023-03-29T00:07:43.461Z,6.35
2023-03-29T00:12:45.581Z,6.44
2023-03-29T00:17:47.665Z,6.53
2023-03-29T00:22:49.851Z,6.55
2023-03-29T00:27:51.860Z,6.62
2023-03-29T00:32:54.030Z,6.67
2023-03-29T00:37:57.374Z,6.70
2023-03-29T00:43:00.587Z,6.75
2023-03-29T00:48:06.581Z,6.84
2023-03-29T00:53:17.352Z,6.85
2023-03-29T00:58:26.671Z,6.85
2023-03-29T01:03:34.321Z,6.76
2023-03-29T01:08:44.780Z,6.80
2023-03-29T01:14:08.846Z,6.94
2023-03-29T01:19:16.014Z,6.74
2023-03-29T01:24:33.463Z,6.71
2023-03-29T01:29:38.682Z,6.63
2023-03-29T01:34:55.378Z,6.71
2023-03-29T01:39:57.450Z,6.77
2023-03-29T01:45:09.100Z,6.84
2023-03-29T01:50:19.840Z,6.80
2023-03-29T01:55:51.393Z,6.85
2023-03-29T02:00:55.417Z,6.71
2023-03-29T02:05:59.609Z,6.68
2023-03-29T02:11:03.202Z,6.72
2023-03-29T02:16:13.408Z,6.82
2023-03-29T02:21:37.372Z,6.94
2023-03-29T02:26:39.622Z,6.79
2023-03-29T02:31:49.573Z,6.82
2023-03-29T02:37:06.971Z,6.88
2023-03-29T02:42:10.019Z,6.78
2023-03-29T02:47:22.072Z,6.89
2023-03-29T02:52:35.616Z,6.92
2023-03-29T02:57:39.534Z,6.84
2023-03-29T03:02:41.970Z,6.80
2023-03-29T03:07:46.235Z,6.77
2023-03-29T03:12:49.023Z,6.78
2023-03-29T03:17:51.197Z,6.78
2023-03-29T03:22:53.253Z,6.86
2023-03-29T03:27:55.429Z,6.85
2023-03-29T03:32:59.691Z,6.93
2023-03-29T03:38:20.212Z,6.91
2023-03-29T03:43:30.408Z,7.01
2023-03-29T03:48:33.451Z,7.06
2023-03-29T03:53:51.777Z,7.17
2023-03-29T03:59:20.032Z,7.19
2023-03-29T04:04:34.930Z,7.21
2023-03-29T04:09:41.505Z,7.27
2023-03-29T04:15:20.366Z,7.40
2023-03-29T04:20:33.753Z,7.44
2023-03-29T04:25:36.746Z,7.53
2023-03-29T04:31:13.312Z,7.77
2023-03-29T04:36:44.642Z,7.87
2023-03-29T04:41:53.647Z,7.95
2023-03-29T04:47:01.039Z,8.10
2023-03-29T04:52:24.419Z,8.39
2023-03-29T04:57:27.920Z,8.12
2023-03-29T05:02:34.383Z,7.97
2023-03-29T05:07:38.068Z,8.02
2023-03-29T05:12:40.394Z,8.18
2023-03-29T05:17:42.634Z,8.34
2023-03-29T05:22:47.351Z,8.51
2023-03-29T05:28:03.623Z,8.66
2023-03-29T05:33:06.553Z,8.81
2023-03-29T05:38:10.027Z,8.81
2023-03-29T05:43:12.722Z,9.05
2023-03-29T05:48:14.673Z,9.35
2023-03-29T05:53:19.605Z,9.14
2023-03-29T05:58:22.256Z,9.16
2023-03-29T06:03:27.563Z,9.29
2023-03-29T06:08:35.271Z,9.47
2023-03-29T06:14:04.793Z,9.65
2023-03-29T06:19:07.788Z,9.65
2023-03-29T06:24:10.965Z,9.68
2023-03-29T06:29:19.689Z,9.82
2023-03-29T06:34:23.049Z,9.65
2023-03-29T06:39:53.451Z,9.68
2023-03-29T06:45:10.995Z,9.70
2023-03-29T06:50:14.805Z,9.75
2023-03-29T06:55:42.145Z,9.84
2023-03-29T07:01:07.555Z,9.73
2023-03-29T07:06:22.398Z,9.64
2023-03-29T07:11:25.289Z,9.57
2023-03-29T07:16:32.721Z,9.64
2023-03-29T07:22:01.191Z,9.47
2023-03-29T07:27:17.928Z,9.29
2023-03-29T07:32:23.846Z,9.12
2023-03-29T07:37:35.283Z,9.11
2023-03-29T07:42:38.488Z,9.15
2023-03-29T07:47:49.288Z,9.32
2023-03-29T07:52:52.090Z,9.15
2023-03-29T07:57:54.781Z,9.19
2023-03-29T08:02:57.708Z,9.16
2023-03-29T08:07:59.894Z,9.22
2023-03-29T08:13:22.160Z,9.18
2023-03-29T08:18:44.460Z,9.18
2023-03-29T08:23:47.154Z,9.36
2023-03-29T08:28:56.879Z,9.48
2023-03-29T08:34:02.057Z,9.68
2023-03-29T08:39:32.748Z,10.01
2023-03-29T08:45:16.048Z,10.51
2023-03-29T08:50:32.610Z,10.47
2023-03-29T08:55:43.682Z,10.60
2023-03-29T09:01:19.224Z,10.39
2023-03-29T09:06:31.804Z,10.01
2023-03-29T09:11:53.468Z,9.82
2023-03-29T09:17:08.364Z,9.73
2023-03-29T09:22:28.105Z,9.45
2023-03-29T09:27:48.636Z,9.43
2023-03-29T09:33:25.023Z,9.31
2023-03-29T09:38:51.100Z,9.25
2023-03-29T09:43:56.399Z,9.07
2023-03-29T09:49:07.051Z,9.19
2023-03-29T09:54:12.585Z,9.18
2023-03-29T09:59:33.162Z,9.27
2023-03-29T10:04:36.190Z,9.22
2023-03-29T10:09:42.334Z,9.25
2023-03-29T10:14:54.388Z,9.29
2023-03-29T10:19:59.203Z,9.43
2023-03-29T10:25:02.431Z,9.34
2023-03-29T10:30:14.175Z,9.34
2023-03-29T10:35:34.857Z,9.41
2023-03-29T10:40:45.226Z,9.22
2023-03-29T10:45:52.770Z,9.29
2023-03-29T10:51:00.287Z,9.22
2023-03-29T10:56:28.022Z,9.20
2023-03-29T11:01:44.362Z,9.17
2023-03-29T11:07:08.799Z,9.21
2023-03-29T11:12:26.581Z,9.12
2023-03-29T11:18:05.985Z,9.12
2023-03-29T11:23:27.539Z,8.95
2023-03-29T11:28:53.055Z,9.00
2023-03-29T11:34:20.258Z,8.91
2023-03-29T11:39:43.545Z,8.80
2023-03-29T11:44:50.739Z,8.70
2023-03-29T11:50:24.876Z,8.86
2023-03-29T11:55:32.437Z,8.71
2023-03-29T12:00:46.582Z,8.88
2023-03-29T12:05:56.819Z,8.79
2023-03-29T12:11:29.173Z,8.91
2023-03-29T12:17:03.200Z,8.83
2023-03-29T12:22:07.947Z,8.71
2023-03-29T12:27:17.237Z,8.67
2023-03-29T12:32:37.810Z,8.84
2023-03-29T12:38:21.012Z,8.89
2023-03-29T12:44:03.576Z,8.83
2023-03-29T12:49:32.615Z,8.70
2023-03-29T12:54:34.775Z,8.61
2023-03-29T12:59:46.391Z,8.63
2023-03-29T13:04:48.414Z,8.63
2023-03-29T13:10:08.693Z,8.57
2023-03-29T13:15:19.360Z,8.60
2023-03-29T13:20:50.946Z,8.65
2023-03-29T13:26:06.448Z,8.53
2023-03-29T13:31:23.551Z,8.54
2023-03-29T13:36:46.281Z,8.49
2023-03-29T13:41:53.109Z,8.38
2023-03-29T13:47:19.348Z,8.35
2023-03-29T13:52:21.374Z,8.28
2023-03-29T13:57:30.293Z,8.28
2023-03-29T14:02:49.428Z,8.29
2023-03-29T14:07:54.437Z,8.31
2023-03-29T14:12:57.744Z,8.36
2023-03-29T14:18:01.579Z,8.27
2023-03-29T14:23:20.049Z,8.42
2023-03-29T14:28:24.956Z,8.20
2023-03-29T14:33:29.377Z,8.22
2023-03-29T14:38:32.340Z,8.13
2023-03-29T14:43:34.397Z,8.27
2023-03-29T14:48:37.525Z,8.18
2023-03-29T14:53:41.746Z,8.27
2023-03-29T14:58:47.402Z,8.36
2023-03-29T15:04:02.069Z,8.46
2023-03-29T15:09:06.591Z,8.41
2023-03-29T15:14:16.823Z,8.52
2023-03-29T15:19:22.207Z,8.52
2023-03-29T15:24:33.337Z,8.65
2023-03-29T15:29:41.909Z,8.58
2023-03-29T15:34:44.048Z,8.59
2023-03-29T15:39:46.118Z,8.59
2023-03-29T15:44:48.210Z,8.59
2023-03-29T15:49:50.769Z,8.58
2023-03-29T15:54:52.810Z,8.68
2023-03-29T15:59:54.950Z,8.66
2023-03-29T16:04:56.998Z,8.67
2023-03-29T16:09:59.081Z,8.64
2023-03-29T16:15:01.189Z,8.60
2023-03-29T16:20:05.431Z,8.58
2023-03-29T16:25:13.596Z,8.64
2023-03-29T16:30:16.165Z,8.75
2023-03-29T16:35:30.603Z,8.83
2023-03-29T16:40:33.404Z,8.70
2023-03-29T16:45:35.471Z,8.78
2023-03-29T16:50:37.771Z,8.79
2023-03-29T16:55:40.437Z,8.85
2023-03-29T17:00:45.693Z,8.90
2023-03-29T17:05:54.562Z,9.04
2023-03-29T17:10:56.682Z,9.01
2023-03-29T17:15:58.851Z,8.95
2023-03-29T17:21:01.729Z,8.93
2023-03-29T17:26:04.855Z,8.95
2023-03-29T17:31:08.064Z,8.99
2023-03-29T17:36:10.753Z,8.97
2023-03-29T17:41:12.818Z,8.96
2023-03-29T17:46:16.631Z,8.93
2023-03-29T17:51:19.934Z,8.88
2023-03-29T17:56:22.907Z,8.92
2023-03-29T18:01:25.172Z,8.93
2023-03-29T18:06:27.369Z,8.91
2023-03-29T18:11:29.692Z,8.99
2023-03-29T18:16:31.824Z,8.94
2023-03-29T18:21:33.930Z,8.93
2023-03-29T18:26:36.041Z,8.90
2023-03-29T18:31:38.167Z,8.82
2023-03-29T18:36:40.409Z,8.76
2023-03-29T18:41:42.440Z,8.75
2023-03-29T18:46:44.807Z,8.77
2023-03-29T18:51:47.741Z,8.79
2023-03-29T18:56:50.042Z,8.76
2023-03-29T19:01:52.359Z,8.80
2023-03-29T19:06:56.131Z,8.75
2023-03-29T19:11:58.249Z,8.76
2023-03-29T19:17:00.470Z,8.71
2023-03-29T19:22:02.638Z,8.44
2023-03-29T19:27:06.562Z,8.49
2023-03-29T19:32:08.742Z,8.52
2023-03-29T19:37:11.106Z,8.49
2023-03-29T19:42:13.247Z,8.50
2023-03-29T19:47:15.787Z,8.51
2023-03-29T19:52:17.943Z,8.51
2023-03-29T19:57:20.093Z,8.46
2023-03-29T20:02:22.289Z,8.48
2023-03-29T20:07:24.364Z,8.42
2023-03-29T20:12:26.575Z,8.48
2023-03-29T20:17:28.979Z,8.49
2023-03-29T20:22:32.826Z,8.50
2023-03-29T20:27:35.533Z,8.50
2023-03-29T20:32:37.836Z,8.58
2023-03-29T20:37:40.108Z,8.47
2023-03-29T20:42:42.301Z,8.54
2023-03-29T20:47:56.030Z,8.58
2023-03-29T20:53:02.285Z,8.47
2023-03-29T20:58:05.536Z,8.58
2023-03-29T21:03:08.654Z,8.52
2023-03-29T21:08:11.020Z,8.55
2023-03-29T21:13:13.172Z,8.63
2023-03-29T21:18:15.914Z,8.56
2023-03-29T21:23:18.001Z,8.54
2023-03-29T21:28:20.143Z,8.54
2023-03-29T21:33:22.349Z,8.50
2023-03-29T21:38:24.500Z,8.49
2023-03-29T21:43:26.604Z,8.50
2023-03-29T21:48:29.115Z,8.56
2023-03-29T21:53:31.433Z,8.59
2023-03-29T21:58:33.568Z,8.60
2023-03-29T22:03:37.519Z,8.61
2023-03-29T22:08:40.004Z,8.62
2023-03-29T22:13:42.945Z,8.62
2023-03-29T22:18:49.750Z,8.69
2023-03-29T22:23:54.266Z,8.71
2023-03-29T22:28:57.591Z,8.70
2023-03-29T22:34:00.785Z,8.66
2023-03-29T22:39:02.938Z,8.66
2023-03-29T22:44:05.858Z,8.63
2023-03-29T22:49:07.994Z,8.58
2023-03-29T22:54:10.094Z,8.56
2023-03-29T22:59:12.247Z,8.48
2023-03-29T23:04:14.724Z,8.49
2023-03-29T23:09:16.949Z,8.49
2023-03-29T23:14:19.105Z,8.52
2023-03-29T23:19:21.237Z,8.56
2023-03-29T23:24:23.580Z,8.47
2023-03-29T23:29:26.452Z,8.50
2023-03-29T23:34:28.809Z,8.50
2023-03-29T23:39:31.081Z,8.46
2023-03-29T23:44:33.224Z,8.37
2023-03-29T23:49:36.309Z,8.29
2023-03-29T23:54:38.334Z,8.53
2023-03-29T23:59:40.468Z,8.56
